Time;durP1;ratioP1;P1;durP2;ratioP2;P2;SDS_P1;SDS_P2;PMS_P1;PMS_P2;Temp;Humidity;BMP_temperature;BMP_pressure;BME280_temperature;BME280_humidity;BME280_pressure;Samples;Min_cycle;Max_cycle;Signal;HPM_P1;HPM_P2
2022/10/15 00:01:11;;;;;;;72.75;47.20;;;13.40;99.90;;;;;;4992852;28;20473;-83
2022/10/15 00:03:42;;;;;;;72.25;44.13;;;13.50;99.90;;;;;;5004590;28;20104;-83
2022/10/15 00:06:12;;;;;;;72.57;47.30;;;13.40;99.90;;;;;;5004676;28;20049;-83
2022/10/15 00:08:38;;;;;;;76.78;46.40;;;13.50;99.90;;;;;;5015560;28;20045;-83
2022/10/15 00:11:07;;;;;;;63.38;43.92;;;13.50;99.90;;;;;;4992236;28;20041;-83
2022/10/15 00:13:33;;;;;;;75.82;48.80;;;13.50;99.90;;;;;;5012846;28;20128;-83
2022/10/15 00:16:00;;;;;;;72.30;47.70;;;13.50;99.90;;;;;;5007100;28;20034;-85
2022/10/15 00:18:25;;;;;;;67.85;45.35;;;13.50;99.90;;;;;;4995586;28;20489;-84
2022/10/15 00:20:51;;;;;;;65.15;45.55;;;13.50;99.90;;;;;;4982924;28;20041;-84
2022/10/15 00:23:17;;;;;;;72.97;46.55;;;13.50;99.90;;;;;;4979142;28;20116;-83
2022/10/15 00:25:42;;;;;;;68.95;45.55;;;13.50;99.90;;;;;;4993914;28;20069;-83
2022/10/15 00:28:08;;;;;;;70.25;45.83;;;13.50;99.90;;;;;;4984979;28;20053;-83
2022/10/15 00:30:34;;;;;;;72.75;46.33;;;13.50;99.90;;;;;;4989149;28;20040;-83
2022/10/15 00:32:59;;;;;;;78.97;48.20;;;13.50;99.90;;;;;;4978946;28;20041;-82
2022/10/15 00:35:25;;;;;;;73.80;48.35;;;13.50;99.90;;;;;;4989706;28;20046;-83
2022/10/15 00:37:51;;;;;;;72.03;46.35;;;13.50;99.90;;;;;;4989614;28;20095;-82
2022/10/15 00:40:18;;;;;;;77.93;46.97;;;13.50;99.90;;;;;;4957996;28;20311;-83
2022/10/15 00:42:44;;;;;;;62.13;44.65;;;13.50;99.90;;;;;;4991349;28;20049;-84
2022/10/15 00:45:14;;;;;;;73.15;46.30;;;13.50;99.90;;;;;;4988190;28;20052;-84
2022/10/15 00:47:46;;;;;;;79.00;47.17;;;13.50;99.90;;;;;;5006805;28;20409;-83
2022/10/15 00:50:22;;;;;;;69.55;45.08;;;13.50;99.90;;;;;;4992492;28;20029;-82
2022/10/15 00:53:00;;;;;;;74.47;46.63;;;13.50;99.90;;;;;;5008103;28;20037;-83
2022/10/15 00:55:39;;;;;;;67.30;43.95;;;13.50;99.90;;;;;;4999118;28;20071;-82
2022/10/15 00:58:09;;;;;;;74.75;46.72;;;13.50;99.90;;;;;;5001952;28;20120;-81
2022/10/15 01:00:35;;;;;;;77.95;49.08;;;13.50;99.90;;;;;;4986554;28;20041;-82
2022/10/15 01:03:01;;;;;;;83.38;48.92;;;13.50;99.90;;;;;;4967182;28;20044;-83
2022/10/15 01:05:27;;;;;;;89.00;50.15;;;13.00;99.90;;;;;;4951100;28;20046;-83
2022/10/15 01:07:53;;;;;;;78.28;45.85;;;13.50;99.90;;;;;;4984986;28;20112;-83
2022/10/15 01:10:20;;;;;;;86.03;49.83;;;13.50;99.90;;;;;;4967247;28;20171;-84
2022/10/15 01:13:21;;;;;;;68.22;42.92;;;13.50;99.90;;;;;;4985285;28;20045;-83
2022/10/15 01:16:18;;;;;;;82.20;46.10;;;13.50;99.90;;;;;;5001022;28;20037;-84
2022/10/15 01:18:44;;;;;;;86.78;49.13;;;13.40;99.90;;;;;;5002383;28;20089;-83
2022/10/15 01:21:28;;;;;;;68.53;44.00;;;13.40;99.90;;;;;;4989857;28;20037;-84
2022/10/15 01:24:20;;;;;;;70.22;43.35;;;13.40;99.90;;;;;;4988584;28;20114;-81
2022/10/15 01:27:17;;;;;;;67.88;40.78;;;13.40;99.90;;;;;;5001223;28;20049;-80
2022/10/15 01:30:02;;;;;;;67.63;42.47;;;13.40;99.90;;;;;;4986265;28;20049;-84
2022/10/15 01:32:37;;;;;;;79.93;46.15;;;13.40;99.90;;;;;;5006211;28;20037;-84
2022/10/15 01:35:29;;;;;;;77.15;45.85;;;13.40;99.90;;;;;;4986847;28;20227;-83
2022/10/15 01:38:05;;;;;;;74.20;43.30;;;13.40;99.90;;;;;;5014053;28;20057;-82
2022/10/15 01:40:40;;;;;;;72.25;43.30;;;13.50;99.90;;;;;;5005244;28;20498;-84
2022/10/15 01:43:12;;;;;;;68.57;43.22;;;13.40;99.90;;;;;;4991674;28;20127;-83
2022/10/15 01:45:51;;;;;;;78.43;45.80;;;13.40;99.90;;;;;;4993165;28;20486;-82
2022/10/15 01:48:18;;;;;;;77.82;45.50;;;13.40;99.90;;;;;;5017066;28;20109;-83
2022/10/15 01:50:49;;;;;;;76.72;44.95;;;13.40;99.90;;;;;;5008391;28;20041;-83
2022/10/15 01:53:18;;;;;;;72.05;42.78;;;13.30;99.90;;;;;;4991068;28;20037;-83
2022/10/15 01:55:45;;;;;;;76.57;43.88;;;13.40;99.90;;;;;;5004509;28;20160;-84
2022/10/15 01:58:14;;;;;;;77.32;43.83;;;13.30;99.90;;;;;;4989596;28;20042;-83
2022/10/15 02:00:42;;;;;;;74.93;43.17;;;13.30;99.90;;;;;;5003033;28;20033;-84
2022/10/15 02:03:08;;;;;;;69.05;41.83;;;13.30;99.90;;;;;;5002331;28;20551;-83
2022/10/15 02:05:54;;;;;;;62.40;38.15;;;13.30;99.90;;;;;;4974413;28;20127;-83
2022/10/15 02:08:31;;;;;;;72.72;41.13;;;13.30;99.90;;;;;;5006323;28;20488;-84
2022/10/15 02:11:16;;;;;;;64.95;39.22;;;13.30;99.90;;;;;;5007610;28;20525;-84
2022/10/15 02:14:07;;;;;;;68.90;38.83;;;13.30;99.90;;;;;;5009671;28;20509;-85
2022/10/15 02:16:33;;;;;;;59.28;35.83;;;13.30;99.90;;;;;;4991636;28;20497;-83
2022/10/15 02:19:21;;;;;;;67.93;37.55;;;13.30;99.90;;;;;;4991395;28;20039;-81
2022/10/15 02:22:03;;;;;;;61.10;35.58;;;13.30;99.90;;;;;;5003873;28;20132;-84
2022/10/15 02:24:35;;;;;;;57.70;36.55;;;13.30;99.90;;;;;;4990623;28;20044;-83
2022/10/15 02:27:02;;;;;;;61.38;35.83;;;13.30;99.90;;;;;;4991310;28;20630;-83
2022/10/15 02:29:33;;;;;;;54.17;33.58;;;13.30;99.90;;;;;;4976106;28;20068;-83
2022/10/15 02:32:00;;;;;;;62.40;34.65;;;13.30;99.90;;;;;;4995277;28;20500;-84
2022/10/15 02:34:29;;;;;;;55.17;33.05;;;13.30;99.90;;;;;;4992331;28;20250;-83
2022/10/15 02:36:57;;;;;;;60.53;34.03;;;13.30;99.90;;;;;;5012762;28;20049;-83
2022/10/15 02:39:24;;;;;;;67.95;37.33;;;13.30;99.90;;;;;;4986788;28;20061;-83
2022/10/15 02:41:52;;;;;;;58.42;34.70;;;13.30;99.90;;;;;;5005218;28;20037;-81
2022/10/15 02:44:18;;;;;;;63.90;35.28;;;13.30;99.90;;;;;;4989721;28;20053;-83
2022/10/15 02:46:43;;;;;;;55.70;34.10;;;13.30;99.90;;;;;;5012222;28;20045;-83
2022/10/15 02:49:09;;;;;;;55.17;34.97;;;13.30;99.90;;;;;;4984958;28;20038;-84
2022/10/15 02:51:35;;;;;;;62.30;38.15;;;13.30;99.90;;;;;;5000596;28;20175;-83
2022/10/15 02:54:03;;;;;;;57.65;34.33;;;13.20;99.90;;;;;;4975276;28;20037;-84
2022/10/15 02:56:28;;;;;;;57.15;34.60;;;13.20;99.90;;;;;;4981142;28;20042;-84
2022/10/15 02:58:54;;;;;;;68.60;41.20;;;13.30;99.90;;;;;;4999558;28;20037;-83
2022/10/15 03:01:20;;;;;;;67.13;39.38;;;13.20;99.90;;;;;;4982559;28;20174;-84
2022/10/15 03:03:46;;;;;;;67.78;41.13;;;13.20;99.90;;;;;;4979551;28;20156;-83
2022/10/15 03:06:12;;;;;;;62.70;38.58;;;13.40;99.90;;;;;;4989535;28;20585;-83
2022/10/15 03:08:38;;;;;;;71.47;41.92;;;13.20;99.90;;;;;;4987004;28;20770;-84
2022/10/15 03:11:04;;;;;;;62.97;40.13;;;13.20;99.90;;;;;;4957584;28;20045;-84
2022/10/15 03:13:29;;;;;;;71.32;40.97;;;13.20;99.90;;;;;;5022019;28;20046;-84
2022/10/15 03:15:55;;;;;;;70.63;40.30;;;13.30;99.90;;;;;;4988683;28;20189;-83
2022/10/15 03:18:21;;;;;;;70.72;39.88;;;13.20;99.90;;;;;;4970538;28;20091;-85
2022/10/15 03:20:55;;;;;;;66.30;40.45;;;13.20;99.90;;;;;;4987398;28;20051;-84
2022/10/15 03:23:21;;;;;;;68.68;40.40;;;13.20;99.90;;;;;;4993752;28;20033;-83
2022/10/15 03:25:47;;;;;;;59.55;36.88;;;13.30;99.90;;;;;;5005361;28;20069;-83
2022/10/15 03:28:13;;;;;;;66.78;42.17;;;13.20;99.90;;;;;;4990930;28;20068;-83
2022/10/15 03:30:38;;;;;;;70.57;41.90;;;13.20;99.90;;;;;;4992858;28;20045;-83
2022/10/15 03:33:04;;;;;;;61.00;35.92;;;13.30;99.90;;;;;;4977793;28;20041;-83
2022/10/15 03:35:30;;;;;;;65.80;39.15;;;13.20;99.90;;;;;;4976747;28;20052;-83
2022/10/15 03:37:55;;;;;;;56.47;36.03;;;13.20;99.90;;;;;;5007696;28;20088;-84
2022/10/15 03:40:21;;;;;;;60.40;37.72;;;13.20;99.90;;;;;;5009138;28;20045;-83
2022/10/15 03:42:50;;;;;;;61.55;39.08;;;13.20;99.90;;;;;;4991931;28;20040;-83
2022/10/15 03:45:19;;;;;;;62.95;40.42;;;13.20;99.90;;;;;;4977985;28;20092;-85
2022/10/15 03:47:45;;;;;;;57.53;37.78;;;13.20;99.90;;;;;;4993996;28;20033;-83
2022/10/15 03:50:11;;;;;;;62.45;38.40;;;13.10;99.90;;;;;;5007645;28;20602;-83
2022/10/15 03:52:38;;;;;;;67.78;39.90;;;13.10;99.90;;;;;;5021326;28;20520;-84
2022/10/15 03:55:05;;;;;;;59.30;39.47;;;13.10;99.90;;;;;;4980730;28;20501;-83
2022/10/15 03:57:31;;;;;;;60.50;38.20;;;13.10;99.90;;;;;;5009273;28;20125;-81
2022/10/15 03:59:57;;;;;;;63.25;37.85;;;13.10;99.90;;;;;;4992977;28;20470;-83
2022/10/15 04:02:23;;;;;;;64.22;38.38;;;13.10;99.90;;;;;;5004197;28;20476;-82
2022/10/15 04:04:52;;;;;;;63.22;39.97;;;13.10;99.90;;;;;;4997317;28;20069;-83
2022/10/15 04:07:18;;;;;;;59.78;38.58;;;13.10;99.90;;;;;;5014515;28;20548;-84
2022/10/15 04:09:44;;;;;;;65.93;39.08;;;13.10;99.90;;;;;;4997363;28;20474;-85
2022/10/15 04:12:09;;;;;;;70.78;39.63;;;13.20;99.90;;;;;;4995065;28;20095;-84
2022/10/15 04:14:35;;;;;;;63.50;40.10;;;13.10;99.90;;;;;;4999898;28;20049;-83
2022/10/15 04:17:01;;;;;;;72.82;40.92;;;13.10;99.90;;;;;;4994320;28;20095;-83
2022/10/15 04:19:26;;;;;;;70.93;43.38;;;13.10;99.90;;;;;;4982704;28;20458;-85
2022/10/15 04:21:52;;;;;;;70.15;42.75;;;13.10;99.90;;;;;;4995443;28;20042;-83
2022/10/15 04:24:18;;;;;;;71.57;41.90;;;13.10;99.90;;;;;;5011474;28;20581;-83
2022/10/15 04:26:44;;;;;;;74.80;43.03;;;13.10;99.90;;;;;;4981116;28;20044;-83
2022/10/15 04:29:10;;;;;;;77.45;43.00;;;13.40;99.90;;;;;;4996826;28;20493;-84
2022/10/15 04:31:36;;;;;;;71.47;42.28;;;13.10;99.90;;;;;;4978294;28;20232;-84
2022/10/15 04:34:02;;;;;;;69.10;41.45;;;13.10;99.90;;;;;;4996181;28;20033;-82
2022/10/15 04:36:28;;;;;;;70.53;41.08;;;13.10;99.90;;;;;;4994718;28;20041;-84
2022/10/15 04:38:53;;;;;;;68.82;41.58;;;13.10;99.90;;;;;;4990206;28;20049;-83
2022/10/15 04:41:19;;;;;;;71.13;42.45;;;13.10;99.90;;;;;;4992896;28;20061;-84
2022/10/15 04:43:45;;;;;;;70.75;41.83;;;13.00;99.90;;;;;;5011060;28;20401;-83
2022/10/15 04:46:11;;;;;;;64.10;41.00;;;13.00;99.90;;;;;;4992660;28;20128;-83
2022/10/15 04:48:37;;;;;;;72.05;41.28;;;13.10;99.90;;;;;;5007283;28;20038;-84
2022/10/15 04:51:04;;;;;;;76.90;43.92;;;13.10;99.90;;;;;;4985653;28;20095;-84
2022/10/15 04:53:30;;;;;;;66.22;40.20;;;13.00;99.90;;;;;;4990063;28;20084;-83
2022/10/15 04:56:04;;;;;;;70.80;42.72;;;13.00;99.90;;;;;;4982297;28;20064;-83
2022/10/15 04:58:31;;;;;;;69.03;41.92;;;13.00;99.90;;;;;;5004676;28;20037;-83
2022/10/15 05:03:27;;;;;;;68.78;42.13;;;13.00;99.90;;;;;;5014993;28;20054;-63
2022/10/15 05:05:52;;;;;;;66.32;40.75;;;12.90;99.90;;;;;;4985157;28;20095;-62
2022/10/15 05:08:18;;;;;;;71.85;42.42;;;13.00;99.90;;;;;;4975971;28;20154;-63
2022/10/15 05:10:44;;;;;;;69.90;41.40;;;12.90;99.90;;;;;;4982891;28;20123;-63
2022/10/15 05:13:09;;;;;;;69.30;41.30;;;12.90;99.90;;;;;;4954696;28;21199;-63
2022/10/15 05:15:35;;;;;;;71.72;42.15;;;12.90;99.90;;;;;;4963375;28;20056;-63
2022/10/15 05:18:01;;;;;;;72.72;42.90;;;12.90;99.90;;;;;;4958631;28;20439;-63
2022/10/15 05:20:26;;;;;;;68.97;41.80;;;12.90;99.90;;;;;;4976425;28;20165;-63
2022/10/15 05:22:52;;;;;;;69.78;41.70;;;12.90;99.90;;;;;;4955014;28;20072;-63
2022/10/15 05:25:18;;;;;;;66.38;41.20;;;12.90;99.90;;;;;;4958566;28;20050;-62
2022/10/15 05:27:43;;;;;;;72.15;42.75;;;12.90;99.90;;;;;;4962246;28;20121;-62
2022/10/15 05:30:10;;;;;;;64.97;41.22;;;12.90;99.90;;;;;;4978571;28;20046;-63
2022/10/15 05:32:35;;;;;;;75.32;44.42;;;12.90;99.90;;;;;;4989029;28;20125;-62
2022/10/15 05:35:01;;;;;;;73.15;41.78;;;12.90;99.90;;;;;;4953601;28;20572;-62
2022/10/15 05:37:27;;;;;;;70.45;42.70;;;12.80;99.90;;;;;;4959038;28;20045;-63
2022/10/15 05:39:52;;;;;;;70.68;40.38;;;12.80;99.90;;;;;;4974264;28;20170;-62
2022/10/15 05:42:18;;;;;;;68.13;42.45;;;12.80;99.90;;;;;;4944214;28;20037;-62
2022/10/15 05:44:44;;;;;;;71.68;43.50;;;12.80;99.90;;;;;;4966457;28;20508;-63
2022/10/15 05:47:10;;;;;;;80.45;46.35;;;12.80;99.90;;;;;;4981190;28;20477;-63
2022/10/15 05:49:36;;;;;;;75.38;44.63;;;12.80;99.90;;;;;;4966134;28;20049;-63
2022/10/15 05:52:02;;;;;;;74.75;44.33;;;12.70;99.90;;;;;;4966519;28;20650;-63
2022/10/15 05:54:28;;;;;;;80.13;45.42;;;12.70;99.90;;;;;;4972596;28;20160;-63
2022/10/15 05:56:54;;;;;;;84.95;46.28;;;12.80;99.90;;;;;;4980287;28;20585;-63
2022/10/15 05:59:19;;;;;;;76.60;48.78;;;12.80;99.90;;;;;;4971986;28;20082;-63
2022/10/15 06:01:45;;;;;;;79.03;47.03;;;12.80;99.90;;;;;;4969891;28;20036;-63
2022/10/15 06:04:11;;;;;;;79.57;48.90;;;12.80;99.90;;;;;;4990271;28;20042;-63
2022/10/15 06:06:36;;;;;;;77.13;47.80;;;12.80;99.90;;;;;;4962911;28;20597;-63
2022/10/15 06:09:02;;;;;;;78.95;49.15;;;12.80;99.90;;;;;;4988132;28;20443;-63
2022/10/15 06:11:28;;;;;;;80.28;48.08;;;12.80;99.90;;;;;;4987956;28;20034;-63
2022/10/15 06:13:54;;;;;;;80.47;49.08;;;12.80;99.90;;;;;;4974334;28;20517;-63
2022/10/15 06:16:19;;;;;;;84.22;49.92;;;12.70;99.90;;;;;;5000132;28;20131;-62
2022/10/15 06:18:45;;;;;;;87.25;49.47;;;12.70;99.90;;;;;;4975009;28;20075;-63
2022/10/15 06:21:11;;;;;;;81.72;50.13;;;12.70;99.90;;;;;;4966333;28;20046;-63
2022/10/15 06:23:37;;;;;;;84.35;50.75;;;12.70;99.90;;;;;;4952615;28;20038;-64
2022/10/15 06:26:05;;;;;;;80.45;50.10;;;12.70;99.90;;;;;;4985796;28;20049;-66
2022/10/15 06:28:32;;;;;;;83.03;51.72;;;12.70;99.90;;;;;;4981048;28;20048;-63
2022/10/15 06:31:01;;;;;;;82.85;51.10;;;12.70;99.90;;;;;;4981680;28;20045;-63
2022/10/15 06:33:28;;;;;;;94.13;53.67;;;12.70;99.90;;;;;;4985975;28;20519;-63
2022/10/15 06:35:54;;;;;;;91.65;52.83;;;12.70;99.90;;;;;;4969245;28;20041;-64
2022/10/15 06:38:19;;;;;;;94.40;54.00;;;12.70;99.90;;;;;;4982046;28;20496;-63
2022/10/15 06:40:45;;;;;;;86.22;52.08;;;12.70;99.90;;;;;;4966118;28;20038;-63
2022/10/15 06:43:11;;;;;;;83.95;51.60;;;12.70;99.90;;;;;;4966208;28;20132;-63
2022/10/15 06:45:41;;;;;;;91.63;54.47;;;12.70;99.90;;;;;;5000258;28;20051;-63
2022/10/15 06:48:07;;;;;;;102.07;57.28;;;12.80;99.90;;;;;;4964568;28;20038;-63
2022/10/15 06:50:35;;;;;;;89.32;53.58;;;12.80;99.90;;;;;;4977833;28;20056;-63
2022/10/15 06:53:01;;;;;;;102.60;56.15;;;12.80;99.90;;;;;;4959611;28;20050;-63
2022/10/15 06:55:28;;;;;;;92.57;55.00;;;12.80;99.90;;;;;;4950139;28;20507;-63
2022/10/15 06:57:55;;;;;;;97.30;54.67;;;12.80;99.90;;;;;;4995948;28;20131;-62
2022/10/15 07:00:21;;;;;;;100.78;56.53;;;12.70;99.90;;;;;;4985433;28;20037;-64
2022/10/15 07:02:47;;;;;;;94.82;56.05;;;12.80;99.90;;;;;;4972672;28;20141;-63
2022/10/15 07:05:13;;;;;;;99.60;57.20;;;12.80;99.90;;;;;;4974584;28;20042;-63
2022/10/15 07:07:39;;;;;;;91.43;53.75;;;12.80;99.90;;;;;;4989687;28;20042;-63
2022/10/15 07:10:06;;;;;;;97.60;56.15;;;12.90;99.90;;;;;;4969128;28;20134;-62
2022/10/15 07:12:32;;;;;;;100.55;56.45;;;12.80;99.90;;;;;;4971310;28;20531;-63
2022/10/15 07:14:58;;;;;;;111.55;58.47;;;12.80;99.90;;;;;;4978868;28;20100;-63
2022/10/15 07:17:23;;;;;;;100.25;57.45;;;12.80;99.90;;;;;;4947700;28;20294;-63
2022/10/15 07:19:49;;;;;;;91.63;54.80;;;12.90;99.90;;;;;;4960285;28;20045;-63
2022/10/15 07:22:15;;;;;;;101.68;58.30;;;12.90;99.90;;;;;;4986122;28;20083;-64
2022/10/15 07:24:40;;;;;;;103.55;56.83;;;12.90;99.90;;;;;;4980852;28;20070;-64
2022/10/15 07:27:06;;;;;;;109.43;60.78;;;12.90;99.90;;;;;;4965616;28;20045;-64
2022/10/15 07:29:32;;;;;;;97.03;55.92;;;12.90;99.90;;;;;;4975142;28;20042;-64
2022/10/15 07:31:58;;;;;;;107.38;57.50;;;13.00;99.90;;;;;;4995903;28;20044;-63
2022/10/15 07:34:24;;;;;;;99.32;57.13;;;13.00;99.90;;;;;;4966913;28;20401;-63
2022/10/15 07:36:50;;;;;;;96.32;54.20;;;13.00;99.90;;;;;;4991150;28;20061;-63
2022/10/15 07:39:18;;;;;;;99.97;55.80;;;13.00;99.90;;;;;;4986536;28;20129;-63
2022/10/15 07:41:45;;;;;;;97.85;56.78;;;13.00;99.90;;;;;;4990408;28;20042;-63
2022/10/15 07:44:10;;;;;;;100.28;55.38;;;13.00;99.90;;;;;;4974688;28;20049;-64
2022/10/15 07:46:36;;;;;;;96.38;56.25;;;13.10;99.90;;;;;;4980888;28;20398;-63
2022/10/15 07:49:02;;;;;;;104.00;56.83;;;13.10;99.90;;;;;;4968846;28;20045;-64
2022/10/15 07:51:28;;;;;;;106.78;58.10;;;13.10;99.90;;;;;;4977578;28;20038;-64
2022/10/15 07:53:54;;;;;;;108.28;56.35;;;13.20;99.90;;;;;;4974329;28;20042;-63
2022/10/15 07:56:20;;;;;;;110.47;58.55;;;13.20;99.90;;;;;;4972720;28;20228;-64
2022/10/15 07:58:50;;;;;;;110.82;56.20;;;13.30;99.90;;;;;;4991217;28;20038;-63
2022/10/15 08:01:17;;;;;;;102.20;55.30;;;13.30;99.90;;;;;;4962960;28;20571;-63
2022/10/15 08:03:43;;;;;;;108.78;56.28;;;13.30;99.90;;;;;;4993136;28;20034;-64
2022/10/15 08:06:09;;;;;;;109.10;55.67;;;13.30;99.90;;;;;;4996341;28;20105;-64
2022/10/15 08:08:35;;;;;;;110.82;53.22;;;13.10;99.90;;;;;;4970780;28;20029;-64
2022/10/15 08:11:06;;;;;;;109.07;51.90;;;13.30;99.90;;;;;;4980562;28;20065;-63
2022/10/15 08:13:32;;;;;;;108.40;52.88;;;13.30;99.90;;;;;;5006721;28;20239;-63
2022/10/15 08:15:57;;;;;;;122.78;55.58;;;13.30;99.90;;;;;;4960372;28;20394;-63
2022/10/15 08:18:23;;;;;;;120.28;55.08;;;13.30;99.90;;;;;;4997762;28;20053;-63
2022/10/15 08:20:49;;;;;;;102.40;52.75;;;13.30;99.90;;;;;;4974804;28;20045;-63
2022/10/15 08:23:15;;;;;;;116.63;55.05;;;13.30;99.90;;;;;;4998765;28;20030;-64
2022/10/15 08:25:42;;;;;;;115.00;56.42;;;13.30;99.90;;;;;;4990892;28;20074;-64
2022/10/15 08:28:10;;;;;;;106.07;52.35;;;13.30;99.90;;;;;;4986903;28;20038;-64
2022/10/15 08:30:36;;;;;;;102.65;52.35;;;13.30;99.90;;;;;;4976739;28;20045;-63
2022/10/15 08:33:02;;;;;;;112.90;52.45;;;13.30;99.90;;;;;;4981638;28;20041;-63
2022/10/15 08:35:28;;;;;;;106.25;52.67;;;13.30;99.90;;;;;;4977237;28;20056;-64
2022/10/15 08:37:54;;;;;;;102.40;52.97;;;13.40;99.90;;;;;;4995013;28;20050;-63
2022/10/15 08:40:23;;;;;;;101.43;50.75;;;13.40;99.90;;;;;;4987421;28;20052;-63
2022/10/15 08:42:49;;;;;;;104.80;51.00;;;13.40;99.90;;;;;;4983424;28;20042;-64
2022/10/15 08:45:41;;;;;;;110.13;51.42;;;13.40;99.90;;;;;;4967135;28;20116;-63
2022/10/15 08:48:14;;;;;;;100.82;49.40;;;13.50;99.90;;;;;;4979746;28;20485;-63
2022/10/15 08:50:41;;;;;;;99.18;49.33;;;13.50;99.90;;;;;;4992663;28;20609;-63
2022/10/15 08:53:13;;;;;;;91.40;47.50;;;13.40;99.90;;;;;;4968801;28;20041;-63
2022/10/15 08:55:42;;;;;;;98.38;49.72;;;13.50;99.90;;;;;;4985943;28;20464;-63
2022/10/15 08:58:18;;;;;;;90.60;48.70;;;13.50;99.90;;;;;;4975637;28;20080;-63
2022/10/15 09:01:05;;;;;;;85.75;45.28;;;13.50;99.90;;;;;;5004847;28;20073;-63
2022/10/15 09:04:13;;;;;;;81.50;42.50;;;13.50;99.90;;;;;;4974768;28;20432;-63
2022/10/15 09:06:39;;;;;;;73.38;38.97;;;13.50;99.90;;;;;;4908679;29;20123;-63
2022/10/15 09:09:33;;;;;;;70.50;38.78;;;13.40;99.90;;;;;;4977231;28;20053;-63
2022/10/15 09:12:17;;;;;;;76.80;42.00;;;13.40;99.90;;;;;;4996130;28;20030;-63
2022/10/15 09:14:45;;;;;;;75.00;41.92;;;13.50;99.90;;;;;;4985980;28;20485;-63
2022/10/15 09:17:31;;;;;;;79.25;43.63;;;13.50;99.90;;;;;;4961218;28;20048;-63
2022/10/15 09:20:01;;;;;;;78.07;45.13;;;13.50;99.90;;;;;;4985827;28;20100;-63
2022/10/15 09:22:30;;;;;;;71.88;39.10;;;13.60;99.90;;;;;;4962058;28;20164;-63
2022/10/15 09:24:56;;;;;;;58.90;38.00;;;13.60;99.90;;;;;;4981918;28;20251;-63
2022/10/15 09:27:28;;;;;;;60.40;36.72;;;13.60;99.90;;;;;;4977931;28;20061;-63
2022/10/15 09:30:03;;;;;;;60.50;36.75;;;13.60;99.90;;;;;;4993890;28;20045;-63
2022/10/15 09:32:39;;;;;;;65.80;38.63;;;13.70;99.90;;;;;;5003372;28;20525;-63
2022/10/15 09:35:25;;;;;;;60.10;38.15;;;13.70;99.90;;;;;;4976848;28;20567;-64
2022/10/15 09:38:15;;;;;;;64.40;38.33;;;13.80;99.90;;;;;;4970094;28;20064;-63
2022/10/15 09:41:09;;;;;;;64.43;36.63;;;13.80;99.90;;;;;;4987829;28;20038;-64
2022/10/15 09:43:37;;;;;;;56.10;33.30;;;13.80;99.90;;;;;;4969418;28;20038;-63
2022/10/15 09:46:03;;;;;;;59.70;33.60;;;13.70;99.90;;;;;;4990338;28;20776;-63
2022/10/15 09:48:51;;;;;;;53.13;31.48;;;13.80;99.90;;;;;;4979850;28;20046;-63
2022/10/15 09:52:01;;;;;;;57.80;34.47;;;13.80;99.90;;;;;;4964628;28;20313;-63
2022/10/15 09:54:59;;;;;;;56.78;32.00;;;13.80;99.90;;;;;;4903042;29;21414;-64
2022/10/15 09:57:26;;;;;;;50.28;28.13;;;13.70;99.90;;;;;;4935859;28;20054;-63
2022/10/15 09:59:54;;;;;;;46.25;28.25;;;13.70;99.90;;;;;;4957743;28;21849;-64
2022/10/15 10:02:23;;;;;;;46.80;27.88;;;13.70;99.90;;;;;;4951234;28;20049;-63
2022/10/15 10:04:48;;;;;;;43.75;25.73;;;13.70;99.90;;;;;;4977995;28;20448;-63
2022/10/15 10:07:35;;;;;;;41.25;25.38;;;13.70;99.90;;;;;;4968750;28;20102;-63
2022/10/15 10:10:06;;;;;;;44.92;25.52;;;13.80;99.90;;;;;;4973880;28;20481;-63
2022/10/15 10:12:34;;;;;;;43.58;26.23;;;13.80;99.90;;;;;;4977294;28;20095;-63
2022/10/15 10:15:05;;;;;;;43.15;26.20;;;13.80;99.90;;;;;;4976129;28;20164;-63
2022/10/15 10:17:31;;;;;;;46.03;24.88;;;13.90;99.90;;;;;;4970486;28;20046;-63
2022/10/15 10:20:18;;;;;;;42.10;25.73;;;13.80;99.90;;;;;;4983319;28;22289;-63
2022/10/15 10:22:44;;;;;;;42.42;26.00;;;13.90;99.90;;;;;;4981517;28;20070;-63
2022/10/15 10:25:41;;;;;;;42.88;25.90;;;13.90;99.90;;;;;;4980564;28;20401;-63
2022/10/15 10:28:12;;;;;;;42.05;25.13;;;13.90;99.90;;;;;;4982683;28;20151;-62
2022/10/15 10:30:51;;;;;;;42.10;25.63;;;14.00;99.90;;;;;;4993247;28;20205;-62
2022/10/15 10:33:36;;;;;;;40.90;25.85;;;13.90;99.90;;;;;;4998084;28;20060;-62
2022/10/15 10:36:03;;;;;;;46.85;26.15;;;14.00;99.90;;;;;;4987202;28;20099;-62
2022/10/15 10:38:36;;;;;;;45.40;26.08;;;14.00;99.90;;;;;;4985007;28;20052;-62
2022/10/15 10:41:10;;;;;;;40.03;24.42;;;14.00;99.90;;;;;;4997930;28;20053;-63
2022/10/15 10:43:51;;;;;;;40.45;24.92;;;14.00;99.90;;;;;;5000713;28;20069;-63
2022/10/15 10:46:19;;;;;;;38.17;23.50;;;14.10;99.90;;;;;;4983528;28;20396;-64
2022/10/15 10:48:48;;;;;;;37.90;23.98;;;14.10;99.90;;;;;;4995177;28;20040;-64
2022/10/15 10:51:18;;;;;;;36.95;23.50;;;14.10;99.90;;;;;;4981357;28;20041;-64
2022/10/15 10:54:05;;;;;;;36.88;22.63;;;14.10;99.90;;;;;;4985122;28;20054;-64
2022/10/15 10:56:39;;;;;;;35.00;22.20;;;14.20;99.90;;;;;;4975913;28;20113;-63
2022/10/15 10:59:36;;;;;;;31.27;21.27;;;14.20;99.90;;;;;;4988384;28;20042;-64
2022/10/15 11:02:05;;;;;;;32.40;20.80;;;14.30;99.90;;;;;;5013089;23;20053;-82
2022/10/15 11:04:33;;;;;;;30.92;19.70;;;14.30;99.90;;;;;;4992736;28;20045;-81
2022/10/15 11:07:02;;;;;;;28.20;18.73;;;14.40;99.90;;;;;;5023194;28;20402;-82
2022/10/15 11:09:53;;;;;;;26.77;18.63;;;14.50;99.90;;;;;;5004419;28;20480;-81
2022/10/15 11:12:46;;;;;;;28.75;19.58;;;14.60;99.90;;;;;;5024304;28;20398;-81
2022/10/15 11:15:21;;;;;;;27.53;19.00;;;14.60;99.90;;;;;;5026337;28;20073;-81
2022/10/15 11:17:53;;;;;;;26.63;17.50;;;14.70;99.90;;;;;;5013503;28;20048;-82
2022/10/15 11:28:09;;;;;;;25.67;17.15;;;15.00;99.90;;;;;;5030707;28;20477;-83
2022/10/15 11:34:17;;;;;;;19.40;13.90;;;15.60;99.90;;;;;;5007505;23;20153;-62
2022/10/15 11:37:03;;;;;;;23.77;15.65;;;15.70;99.90;;;;;;4981260;28;20073;-61
2022/10/15 11:39:57;;;;;;;20.33;14.95;;;15.70;99.90;;;;;;5002161;28;20052;-62
2022/10/15 11:42:51;;;;;;;21.20;14.73;;;15.60;99.90;;;;;;4984026;28;20397;-62
2022/10/15 11:45:17;;;;;;;19.33;13.88;;;15.60;99.90;;;;;;5000612;28;20029;-62
2022/10/15 11:47:58;;;;;;;19.35;14.98;;;15.50;99.90;;;;;;5006268;28;20300;-62
2022/10/15 11:50:42;;;;;;;20.23;14.00;;;15.60;99.90;;;;;;4977911;28;20046;-62
2022/10/15 11:53:29;;;;;;;17.48;14.05;;;15.60;99.90;;;;;;4995698;28;20063;-61
2022/10/15 11:55:57;;;;;;;17.90;13.25;;;15.60;99.90;;;;;;4998115;28;20252;-62
2022/10/15 11:58:32;;;;;;;17.67;13.85;;;15.60;99.90;;;;;;5001783;28;20054;-62
2022/10/15 12:01:06;;;;;;;18.40;13.82;;;15.70;99.90;;;;;;4992603;28;20030;-62
2022/10/15 12:03:39;;;;;;;16.77;12.23;;;15.70;99.90;;;;;;4994968;28;20052;-61
2022/10/15 12:06:11;;;;;;;18.23;13.85;;;15.70;99.90;;;;;;4987215;28;20045;-62
2022/10/15 12:08:38;;;;;;;14.50;12.27;;;15.70;99.90;;;;;;4989751;28;20335;-62
2022/10/15 12:11:04;;;;;;;16.92;12.85;;;15.70;99.90;;;;;;4994851;28;20029;-62
2022/10/15 12:13:57;;;;;;;17.15;12.55;;;15.70;99.90;;;;;;5000654;28;20749;-62
2022/10/15 12:16:38;;;;;;;15.57;12.07;;;15.70;99.90;;;;;;5002269;28;20300;-62
2022/10/15 12:19:17;;;;;;;17.50;12.35;;;15.70;99.90;;;;;;4976959;28;20057;-62
2022/10/15 12:22:05;;;;;;;16.23;13.00;;;15.70;99.90;;;;;;4992666;28;20034;-62
2022/10/15 12:24:37;;;;;;;15.75;12.32;;;15.60;99.90;;;;;;4962978;28;20061;-61
2022/10/15 12:27:16;;;;;;;15.90;12.23;;;15.70;99.90;;;;;;4997269;28;20081;-61
2022/10/15 12:29:41;;;;;;;17.90;11.63;;;15.70;99.90;;;;;;4996179;28;20042;-62
2022/10/15 12:32:26;;;;;;;12.63;11.05;;;15.70;99.90;;;;;;4976082;28;20052;-62
2022/10/15 12:35:00;;;;;;;15.65;11.73;;;15.70;99.90;;;;;;4992748;28;20041;-61
2022/10/15 12:37:30;;;;;;;13.70;11.20;;;15.70;99.90;;;;;;4997611;28;20492;-61
2022/10/15 12:40:03;;;;;;;15.73;12.10;;;15.70;99.90;;;;;;4984636;28;20112;-62
2022/10/15 12:42:31;;;;;;;14.43;11.25;;;15.60;99.90;;;;;;4998184;28;20046;-62
2022/10/15 12:45:01;;;;;;;14.38;11.50;;;15.60;99.90;;;;;;4984032;28;20041;-62
2022/10/15 12:47:53;;;;;;;13.13;10.63;;;15.50;99.90;;;;;;4996675;28;20396;-62
2022/10/15 12:50:31;;;;;;;13.60;10.68;;;15.50;99.90;;;;;;4975144;28;20488;-62
2022/10/15 12:53:02;;;;;;;13.73;11.23;;;15.50;99.90;;;;;;4992953;28;20374;-61
2022/10/15 12:55:30;;;;;;;16.20;11.73;;;15.40;99.90;;;;;;4998936;28;20398;-61
2022/10/15 12:57:57;;;;;;;15.25;11.88;;;15.40;99.90;;;;;;4987552;28;20451;-62